sensor_id;sensor_type;location;lat;lon;timestamp;pressure;altitude;pressure_sealevel;temperature;humidity
19843;BME280;10082;51.038;6.992;2023-08-07T16:28:45;112171.53;;;-144.33;88.63
19843;BME280;10082;51.038;6.992;2023-08-07T16:31:13;112171.53;;;-144.33;88.41
19843;BME280;10082;51.038;6.992;2023-08-07T16:33:44;112171.53;;;-144.33;85.25
19843;BME280;10082;51.038;6.992;2023-08-07T16:36:11;112171.53;;;-144.33;86.13
19843;BME280;10082;51.038;6.992;2023-08-07T16:38:39;112171.53;;;-144.33;86.32
19843;BME280;10082;51.038;6.992;2023-08-07T16:41:09;112171.53;;;-144.33;85.11
19843;BME280;10082;51.038;6.992;2023-08-07T16:43:37;112171.53;;;-144.33;89.20
19843;BME280;10082;51.038;6.992;2023-08-07T16:46:07;112171.53;;;-144.33;89.97
19843;BME280;10082;51.038;6.992;2023-08-07T16:48:34;112171.53;;;-144.33;92.70
19843;BME280;10082;51.038;6.992;2023-08-07T16:51:02;112171.53;;;-144.33;93.99
19843;BME280;10082;51.038;6.992;2023-08-07T16:53:34;112171.53;;;-144.33;96.28
19843;BME280;10082;51.038;6.992;2023-08-07T16:56:05;112171.53;;;-144.33;95.90
19843;BME280;10082;51.038;6.992;2023-08-07T16:58:43;112171.53;;;-144.33;94.58
19843;BME280;10082;51.038;6.992;2023-08-07T17:01:18;112171.53;;;-144.33;93.97
19843;BME280;10082;51.038;6.992;2023-08-07T17:03:52;112171.53;;;-144.33;96.33
19843;BME280;10082;51.038;6.992;2023-08-07T17:06:37;112171.53;;;-144.33;98.68
19843;BME280;10082;51.038;6.992;2023-08-07T17:09:07;112171.53;;;-144.33;97.25
19843;BME280;10082;51.038;6.992;2023-08-07T17:11:35;112171.53;;;-144.33;96.66
19843;BME280;10082;51.038;6.992;2023-08-07T17:14:03;112171.53;;;-144.33;96.32
19843;BME280;10082;51.038;6.992;2023-08-07T17:16:35;112171.53;;;-144.33;97.04
19843;BME280;10082;51.038;6.992;2023-08-07T17:19:02;112171.53;;;-144.33;97.53
19843;BME280;10082;51.038;6.992;2023-08-07T17:21:30;112171.53;;;-144.33;98.50
19843;BME280;10082;51.038;6.992;2023-08-07T17:23:59;112171.53;;;-144.33;99.74
19843;BME280;10082;51.038;6.992;2023-08-07T17:26:27;112171.53;;;-144.33;99.63
19843;BME280;10082;51.038;6.992;2023-08-07T17:28:55;112171.53;;;-144.33;100.00
19843;BME280;10082;51.038;6.992;2023-08-07T17:31:31;112171.53;;;-144.33;100.00
19843;BME280;10082;51.038;6.992;2023-08-07T17:34:03;112171.53;;;-144.33;100.00
19843;BME280;10082;51.038;6.992;2023-08-07T17:36:30;112171.53;;;-144.33;100.00
19843;BME280;10082;51.038;6.992;2023-08-07T17:38:58;112171.53;;;-144.33;100.00
19843;BME280;10082;51.038;6.992;2023-08-07T17:41:26;112171.53;;;-144.33;100.00
19843;BME280;10082;51.038;6.992;2023-08-07T17:43:54;112171.53;;;-144.33;100.00
19843;BME280;10082;51.038;6.992;2023-08-07T17:46:25;112171.53;;;-144.33;100.00
19843;BME280;10082;51.038;6.992;2023-08-07T17:48:57;112171.53;;;-144.33;100.00
19843;BME280;10082;51.038;6.992;2023-08-07T17:51:33;112171.53;;;-144.33;100.00
19843;BME280;10082;51.038;6.992;2023-08-07T17:54:11;112171.53;;;-144.33;100.00
19843;BME280;10082;51.038;6.992;2023-08-07T17:56:43;112171.53;;;-144.33;100.00
19843;BME280;10082;51.038;6.992;2023-08-07T17:59:13;112171.53;;;-144.33;100.00
19843;BME280;10082;51.038;6.992;2023-08-07T18:01:44;112171.53;;;-144.33;100.00
19843;BME280;10082;51.038;6.992;2023-08-07T18:04:15;112171.53;;;-144.33;100.00
19843;BME280;10082;51.038;6.992;2023-08-07T18:06:56;112171.53;;;-144.33;100.00
19843;BME280;10082;51.038;6.992;2023-08-07T18:09:23;112171.53;;;-144.33;100.00
19843;BME280;10082;51.038;6.992;2023-08-07T18:11:55;112171.53;;;-144.33;98.60
19843;BME280;10082;51.038;6.992;2023-08-07T18:14:30;112171.53;;;-144.33;97.67
19843;BME280;10082;51.038;6.992;2023-08-07T18:16:58;112171.53;;;-144.33;95.11
19843;BME280;10082;51.038;6.992;2023-08-07T18:19:28;112171.53;;;-144.33;94.25
19843;BME280;10082;51.038;6.992;2023-08-07T18:21:59;112171.53;;;-144.33;93.90
19843;BME280;10082;51.038;6.992;2023-08-07T18:24:36;112171.53;;;-144.33;94.61
19843;BME280;10082;51.038;6.992;2023-08-07T18:27:05;112171.53;;;-144.33;95.37
19843;BME280;10082;51.038;6.992;2023-08-07T18:29:32;112171.53;;;-144.33;97.68
19843;BME280;10082;51.038;6.992;2023-08-07T18:32:02;112171.53;;;-144.33;98.77
19843;BME280;10082;51.038;6.992;2023-08-07T18:34:39;112171.53;;;-144.33;99.51
19843;BME280;10082;51.038;6.992;2023-08-07T18:37:14;112171.53;;;-144.33;100.00
19843;BME280;10082;51.038;6.992;2023-08-07T18:39:45;112171.53;;;-144.33;100.00
19843;BME280;10082;51.038;6.992;2023-08-07T18:42:15;112171.53;;;-144.33;100.00
19843;BME280;10082;51.038;6.992;2023-08-07T18:44:48;112171.53;;;-144.33;100.00
19843;BME280;10082;51.038;6.992;2023-08-07T18:47:16;112171.53;;;-144.33;100.00
19843;BME280;10082;51.038;6.992;2023-08-07T18:49:45;112171.53;;;-144.33;100.00
19843;BME280;10082;51.038;6.992;2023-08-07T18:52:28;112171.53;;;-144.33;100.00
19843;BME280;10082;51.038;6.992;2023-08-07T18:54:55;112171.53;;;-144.33;100.00
19843;BME280;10082;51.038;6.992;2023-08-07T18:57:25;112171.53;;;-144.33;100.00
19843;BME280;10082;51.038;6.992;2023-08-07T18:59:56;112171.53;;;-144.33;100.00
19843;BME280;10082;51.038;6.992;2023-08-07T19:02:29;112171.53;;;-144.33;100.00
19843;BME280;10082;51.038;6.992;2023-08-07T19:05:00;112171.53;;;-144.33;100.00
19843;BME280;10082;51.038;6.992;2023-08-07T19:07:29;112171.53;;;-144.33;100.00
19843;BME280;10082;51.038;6.992;2023-08-07T19:10:03;112171.53;;;-144.33;100.00
19843;BME280;10082;51.038;6.992;2023-08-07T19:12:32;112171.53;;;-144.33;100.00
19843;BME280;10082;51.038;6.992;2023-08-07T19:15:01;112171.53;;;-144.33;100.00
19843;BME280;10082;51.038;6.992;2023-08-07T19:17:43;112171.53;;;-144.33;100.00
19843;BME280;10082;51.038;6.992;2023-08-07T19:21:02;112171.53;;;-144.33;100.00
19843;BME280;10082;51.038;6.992;2023-08-07T19:27:23;112171.53;;;-144.33;100.00
19843;BME280;10082;51.038;6.992;2023-08-07T19:29:54;112171.53;;;-144.33;100.00
19843;BME280;10082;51.038;6.992;2023-08-07T19:32:21;112171.53;;;-144.33;100.00
19843;BME280;10082;51.038;6.992;2023-08-07T19:34:48;112171.53;;;-144.33;100.00
19843;BME280;10082;51.038;6.992;2023-08-07T19:37:16;112171.53;;;-144.33;100.00
19843;BME280;10082;51.038;6.992;2023-08-07T19:39:45;112171.53;;;-144.33;100.00
19843;BME280;10082;51.038;6.992;2023-08-07T19:42:18;112171.53;;;-144.33;100.00
19843;BME280;10082;51.038;6.992;2023-08-07T19:45:03;112171.53;;;-144.33;100.00
19843;BME280;10082;51.038;6.992;2023-08-07T19:47:34;110356.25;;;-144.33;100.00
19843;BME280;10082;51.038;6.992;2023-08-07T19:50:09;103165.34;;;-144.33;100.00
19843;BME280;10082;51.038;6.992;2023-08-07T19:52:39;98283.53;;;-144.33;100.00
19843;BME280;10082;51.038;6.992;2023-08-07T19:55:10;92381.84;;;-144.33;100.00
19843;BME280;10082;51.038;6.992;2023-08-07T19:57:42;88025.25;;;-144.33;100.00
19843;BME280;10082;51.038;6.992;2023-08-07T20:00:26;83161.69;;;-144.33;100.00
19843;BME280;10082;51.038;6.992;2023-08-07T20:03:09;77793.00;;;-144.33;100.00
19843;BME280;10082;51.038;6.992;2023-08-07T20:05:40;71156.00;;;-144.33;100.00
19843;BME280;10082;51.038;6.992;2023-08-07T20:08:11;66312.88;;;-144.33;100.00
19843;BME280;10082;51.038;6.992;2023-08-07T20:10:45;60712.34;;;-144.33;100.00
19843;BME280;10082;51.038;6.992;2023-08-07T20:13:33;56390.09;;;-144.33;100.00
19843;BME280;10082;51.038;6.992;2023-08-07T20:16:20;53849.78;;;-144.33;100.00
19843;BME280;10082;51.038;6.992;2023-08-07T20:18:48;50296.06;;;-144.33;100.00
19843;BME280;10082;51.038;6.992;2023-08-07T20:21:21;48520.41;;;-144.33;100.00
19843;BME280;10082;51.038;6.992;2023-08-07T20:23:54;46745.56;;;-144.33;100.00
19843;BME280;10082;51.038;6.992;2023-08-07T20:26:41;44464.75;;;-144.33;100.00
19843;BME280;10082;51.038;6.992;2023-08-07T20:29:22;42438.50;;;-144.33;100.00
19843;BME280;10082;51.038;6.992;2023-08-07T20:31:58;40160.22;;;-144.33;100.00
19843;BME280;10082;51.038;6.992;2023-08-07T20:34:31;37883.22;;;-144.33;100.00
19843;BME280;10082;51.038;6.992;2023-08-07T20:40:41;33585.88;;;-144.33;100.00
19843;BME280;10082;51.038;6.992;2023-08-07T20:43:28;32070.28;;;-144.33;100.00
19843;BME280;10082;51.038;6.992;2023-08-07T20:46:24;30050.41;;;-144.33;100.00
19843;BME280;10082;51.038;6.992;2023-08-07T20:49:10;28283.88;;;-144.33;100.00
19843;BME280;10082;51.038;6.992;2023-08-07T20:51:52;27527.03;;;-144.33;100.00
19843;BME280;10082;51.038;6.992;2023-08-07T20:54:29;26770.34;;;-144.33;100.00
19843;BME280;10082;51.038;6.992;2023-08-07T20:56:58;26265.94;;;-144.33;100.00
19843;BME280;10082;51.038;6.992;2023-08-07T20:59:47;26916.13;;;-144.33;100.00
19843;BME280;10082;51.038;6.992;2023-08-07T21:02:27;27160.47;;;-144.33;100.00
19843;BME280;10082;51.038;6.992;2023-08-07T21:09:03;25582.38;;;-144.33;100.00
19843;BME280;10082;51.038;6.992;2023-08-07T21:11:50;24629.13;;;-144.33;100.00
19843;BME280;10082;51.038;6.992;2023-08-07T21:15:02;22754.81;;;-144.33;100.00
19843;BME280;10082;51.038;6.992;2023-08-07T21:20:06;21206.03;;;-144.33;100.00
19843;BME280;10082;51.038;6.992;2023-08-07T21:22:38;19907.66;;;-144.33;100.00
19843;BME280;10082;51.038;6.992;2023-08-07T21:25:17;18399.31;;;-144.33;100.00
19843;BME280;10082;51.038;6.992;2023-08-07T21:27:47;17445.84;;;-144.33;100.00
19843;BME280;10082;51.038;6.992;2023-08-07T21:30:15;18114.25;;;-144.33;100.00
19843;BME280;10082;51.038;6.992;2023-08-07T21:32:52;18723.75;;;-144.33;100.00
19843;BME280;10082;51.038;6.992;2023-08-07T21:35:20;18851.56;;;-144.33;100.00
19843;BME280;10082;51.038;6.992;2023-08-07T21:37:47;17496.97;;;-144.33;100.00
19843;BME280;10082;51.038;6.992;2023-08-07T21:40:23;16706.84;;;-144.33;100.00
19843;BME280;10082;51.038;6.992;2023-08-07T21:42:50;14655.63;;;-144.33;100.00
19843;BME280;10082;51.038;6.992;2023-08-07T21:45:25;12680.09;;;-144.33;100.00
19843;BME280;10082;51.038;6.992;2023-08-07T21:47:56;11627.91;;;-144.33;100.00
19843;BME280;10082;51.038;6.992;2023-08-07T21:50:24;9691.19;;;-144.33;100.00
19843;BME280;10082;51.038;6.992;2023-08-07T21:52:52;9640.19;;;-144.33;100.00
19843;BME280;10082;51.038;6.992;2023-08-07T21:55:22;7384.88;;;-144.33;100.00
19843;BME280;10082;51.038;6.992;2023-08-07T21:57:49;6859.47;;;-144.33;100.00
19843;BME280;10082;51.038;6.992;2023-08-07T22:00:20;8339.78;;;-144.33;100.00
19843;BME280;10082;51.038;6.992;2023-08-07T22:02:49;9485.22;;;-144.33;100.00
19843;BME280;10082;51.038;6.992;2023-08-07T22:05:34;8775.19;;;-144.33;100.00
19843;BME280;10082;51.038;6.992;2023-08-07T22:08:03;7508.41;;;-144.33;100.00
19843;BME280;10082;51.038;6.992;2023-08-07T22:10:33;4713.53;;;-144.33;100.00
19843;BME280;10082;51.038;6.992;2023-08-07T22:13:01;2451.31;;;-144.33;100.00
19843;BME280;10082;51.038;6.992;2023-08-07T22:15:32;973.25;;;-144.33;100.00
19843;BME280;10082;51.038;6.992;2023-08-07T22:18:02;-664.69;;;-144.33;100.00
19843;BME280;10082;51.038;6.992;2023-08-07T22:20:34;-1881.41;;;-144.33;100.00
19843;BME280;10082;51.038;6.992;2023-08-07T22:23:08;-2061.34;;;-144.33;100.00
19843;BME280;10082;51.038;6.992;2023-08-07T22:25:38;-3076.28;;;-144.33;100.00
19843;BME280;10082;51.038;6.992;2023-08-07T22:28:07;-3377.38;;;-144.33;100.00
19843;BME280;10082;51.038;6.992;2023-08-07T22:30:35;-3627.63;;;-144.33;100.00
19843;BME280;10082;51.038;6.992;2023-08-07T22:33:04;-3877.84;;;-144.33;100.00
19843;BME280;10082;51.038;6.992;2023-08-07T22:35:32;-4128.06;;;-144.33;100.00
19843;BME280;10082;51.038;6.992;2023-08-07T22:37:59;-4128.06;;;-144.33;100.00
19843;BME280;10082;51.038;6.992;2023-08-07T22:40:28;-4378.25;;;-144.33;100.00
19843;BME280;10082;51.038;6.992;2023-08-07T22:43:06;-4628.44;;;-144.33;100.00
19843;BME280;10082;51.038;6.992;2023-08-07T22:45:33;-5128.75;;;-144.33;100.00
19843;BME280;10082;51.038;6.992;2023-08-07T22:48:01;-5629.00;;;-144.33;100.00
19843;BME280;10082;51.038;6.992;2023-08-07T22:50:30;-6129.19;;;-144.33;100.00
19843;BME280;10082;51.038;6.992;2023-08-07T22:52:58;-6629.28;;;-144.33;100.00
19843;BME280;10082;51.038;6.992;2023-08-07T22:55:29;-7379.34;;;-144.33;100.00
19843;BME280;10082;51.038;6.992;2023-08-07T22:57:58;-7629.34;;;-144.33;100.00
19843;BME280;10082;51.038;6.992;2023-08-07T23:00:35;-8129.25;;;-144.33;100.00
19843;BME280;10082;51.038;6.992;2023-08-07T23:03:04;-8379.19;;;-144.33;100.00
19843;BME280;10082;51.038;6.992;2023-08-07T23:05:32;-8379.19;;;-144.33;100.00
19843;BME280;10082;51.038;6.992;2023-08-07T23:08:00;-7879.31;;;-144.33;100.00
19843;BME280;10082;51.038;6.992;2023-08-07T23:10:29;-7879.31;;;-144.33;100.00
19843;BME280;10082;51.038;6.992;2023-08-07T23:13:01;-7629.34;;;-144.33;100.00
19843;BME280;10082;51.038;6.992;2023-08-07T23:15:32;-7129.34;;;-144.33;100.00
19843;BME280;10082;51.038;6.992;2023-08-07T23:17:59;-7129.34;;;-144.33;100.00
19843;BME280;10082;51.038;6.992;2023-08-07T23:20:31;-6879.34;;;-144.33;100.00
19843;BME280;10082;51.038;6.992;2023-08-07T23:23:00;-7129.34;;;-144.33;100.00
19843;BME280;10082;51.038;6.992;2023-08-07T23:25:31;-6879.34;;;-144.33;100.00
19843;BME280;10082;51.038;6.992;2023-08-07T23:28:00;-6879.34;;;-144.33;100.00
19843;BME280;10082;51.038;6.992;2023-08-07T23:30:29;-6629.28;;;-144.33;100.00
19843;BME280;10082;51.038;6.992;2023-08-07T23:32:59;-6629.28;;;-144.33;100.00
19843;BME280;10082;51.038;6.992;2023-08-07T23:35:27;-5879.09;;;-144.33;100.00
19843;BME280;10082;51.038;6.992;2023-08-07T23:37:55;-5629.00;;;-144.33;100.00
19843;BME280;10082;51.038;6.992;2023-08-07T23:40:23;-4878.59;;;-144.33;100.00
19843;BME280;10082;51.038;6.992;2023-08-07T23:42:53;-4628.44;;;-144.33;100.00
19843;BME280;10082;51.038;6.992;2023-08-07T23:45:22;-4378.25;;;-144.33;100.00
19843;BME280;10082;51.038;6.992;2023-08-07T23:47:50;-4378.25;;;-144.33;100.00
19843;BME280;10082;51.038;6.992;2023-08-07T23:50:19;-4378.25;;;-144.33;100.00
19843;BME280;10082;51.038;6.992;2023-08-07T23:52:46;-4378.25;;;-144.33;100.00
19843;BME280;10082;51.038;6.992;2023-08-07T23:55:14;-4378.25;;;-144.33;100.00
19843;BME280;10082;51.038;6.992;2023-08-07T23:57:41;-4628.44;;;-144.33;100.00
